sensor_id;sensor_type;location;lat;lon;timestamp;P1;durP1;ratioP1;P2;durP2;ratioP2
173;SDS011;75;48.784;9.364;2023-03-03T00:00:55;112.87;;;49.80;;
173;SDS011;75;48.784;9.364;2023-03-03T00:03:40;112.43;;;50.77;;
173;SDS011;75;48.784;9.364;2023-03-03T00:06:25;120.77;;;51.27;;
173;SDS011;75;48.784;9.364;2023-03-03T00:09:10;119.43;;;52.57;;
173;SDS011;75;48.784;9.364;2023-03-03T00:11:55;123.63;;;53.20;;
173;SDS011;75;48.784;9.364;2023-03-03T00:14:40;121.10;;;51.20;;
173;SDS011;75;48.784;9.364;2023-03-03T00:17:26;137.47;;;53.70;;
173;SDS011;75;48.784;9.364;2023-03-03T00:23:17;120.87;;;52.80;;
173;SDS011;75;48.784;9.364;2023-03-03T00:29:37;143.10;;;57.77;;
173;SDS011;75;48.784;9.364;2023-03-03T00:32:29;138.37;;;54.20;;
173;SDS011;75;48.784;9.364;2023-03-03T00:35:23;132.20;;;57.17;;
173;SDS011;75;48.784;9.364;2023-03-03T00:38:09;146.60;;;60.47;;
173;SDS011;75;48.784;9.364;2023-03-03T00:40:55;138.73;;;58.03;;
173;SDS011;75;48.784;9.364;2023-03-03T00:43:40;140.73;;;55.83;;
173;SDS011;75;48.784;9.364;2023-03-03T00:46:25;138.07;;;53.93;;
173;SDS011;75;48.784;9.364;2023-03-03T00:49:10;152.50;;;56.73;;
173;SDS011;75;48.784;9.364;2023-03-03T00:52:00;157.77;;;62.97;;
173;SDS011;75;48.784;9.364;2023-03-03T00:54:46;157.47;;;60.77;;
173;SDS011;75;48.784;9.364;2023-03-03T00:57:31;163.23;;;65.73;;
173;SDS011;75;48.784;9.364;2023-03-03T01:00:15;148.23;;;61.10;;
173;SDS011;75;48.784;9.364;2023-03-03T01:03:04;138.43;;;59.10;;
173;SDS011;75;48.784;9.364;2023-03-03T01:05:50;157.47;;;63.67;;
173;SDS011;75;48.784;9.364;2023-03-03T01:08:34;161.90;;;63.33;;
173;SDS011;75;48.784;9.364;2023-03-03T01:11:21;152.73;;;61.30;;
173;SDS011;75;48.784;9.364;2023-03-03T01:14:06;149.40;;;55.27;;
173;SDS011;75;48.784;9.364;2023-03-03T01:16:51;167.13;;;60.27;;
173;SDS011;75;48.784;9.364;2023-03-03T01:19:35;162.40;;;59.90;;
173;SDS011;75;48.784;9.364;2023-03-03T01:22:20;169.33;;;66.50;;
173;SDS011;75;48.784;9.364;2023-03-03T01:25:05;180.53;;;61.87;;
173;SDS011;75;48.784;9.364;2023-03-03T01:27:49;167.77;;;62.77;;
173;SDS011;75;48.784;9.364;2023-03-03T01:30:34;173.43;;;67.10;;
173;SDS011;75;48.784;9.364;2023-03-03T01:33:19;171.43;;;58.30;;
173;SDS011;75;48.784;9.364;2023-03-03T01:36:04;176.23;;;67.50;;
173;SDS011;75;48.784;9.364;2023-03-03T01:38:50;170.70;;;60.30;;
173;SDS011;75;48.784;9.364;2023-03-03T01:41:35;163.73;;;65.00;;
173;SDS011;75;48.784;9.364;2023-03-03T01:44:20;178.93;;;69.13;;
173;SDS011;75;48.784;9.364;2023-03-03T01:47:09;176.93;;;68.03;;
173;SDS011;75;48.784;9.364;2023-03-03T01:49:57;179.47;;;61.27;;
173;SDS011;75;48.784;9.364;2023-03-03T01:52:43;161.47;;;61.17;;
173;SDS011;75;48.784;9.364;2023-03-03T01:55:30;158.47;;;60.97;;
173;SDS011;75;48.784;9.364;2023-03-03T01:58:19;178.07;;;60.17;;
173;SDS011;75;48.784;9.364;2023-03-03T02:01:06;170.50;;;65.40;;
173;SDS011;75;48.784;9.364;2023-03-03T02:03:51;163.07;;;58.87;;
173;SDS011;75;48.784;9.364;2023-03-03T02:06:37;189.30;;;70.87;;
173;SDS011;75;48.784;9.364;2023-03-03T02:12:31;194.07;;;71.30;;
173;SDS011;75;48.784;9.364;2023-03-03T02:15:18;189.37;;;69.70;;
173;SDS011;75;48.784;9.364;2023-03-03T02:18:05;185.83;;;71.17;;
173;SDS011;75;48.784;9.364;2023-03-03T02:23:48;193.73;;;71.93;;
173;SDS011;75;48.784;9.364;2023-03-03T02:26:40;189.27;;;64.40;;
173;SDS011;75;48.784;9.364;2023-03-03T02:29:25;192.20;;;61.20;;
173;SDS011;75;48.784;9.364;2023-03-03T02:32:10;194.37;;;60.83;;
173;SDS011;75;48.784;9.364;2023-03-03T02:34:54;195.87;;;68.50;;
173;SDS011;75;48.784;9.364;2023-03-03T02:37:39;215.93;;;79.27;;
173;SDS011;75;48.784;9.364;2023-03-03T02:40:24;194.37;;;71.33;;
173;SDS011;75;48.784;9.364;2023-03-03T02:43:10;192.77;;;71.53;;
173;SDS011;75;48.784;9.364;2023-03-03T02:45:55;192.60;;;71.73;;
173;SDS011;75;48.784;9.364;2023-03-03T02:48:39;192.00;;;70.33;;
173;SDS011;75;48.784;9.364;2023-03-03T02:51:24;185.67;;;68.37;;
173;SDS011;75;48.784;9.364;2023-03-03T02:54:11;206.33;;;74.60;;
173;SDS011;75;48.784;9.364;2023-03-03T02:56:56;193.67;;;70.30;;
173;SDS011;75;48.784;9.364;2023-03-03T02:59:41;185.17;;;69.10;;
173;SDS011;75;48.784;9.364;2023-03-03T03:02:25;173.93;;;68.77;;
173;SDS011;75;48.784;9.364;2023-03-03T03:05:10;169.67;;;64.47;;
173;SDS011;75;48.784;9.364;2023-03-03T03:07:55;159.87;;;62.43;;
173;SDS011;75;48.784;9.364;2023-03-03T03:10:39;172.53;;;67.30;;
173;SDS011;75;48.784;9.364;2023-03-03T03:13:24;151.17;;;60.03;;
173;SDS011;75;48.784;9.364;2023-03-03T03:16:09;145.57;;;58.53;;
173;SDS011;75;48.784;9.364;2023-03-03T03:18:54;144.77;;;59.87;;
173;SDS011;75;48.784;9.364;2023-03-03T03:21:39;137.50;;;57.20;;
173;SDS011;75;48.784;9.364;2023-03-03T03:24:24;124.90;;;53.80;;
173;SDS011;75;48.784;9.364;2023-03-03T03:27:08;124.50;;;56.27;;
173;SDS011;75;48.784;9.364;2023-03-03T03:29:53;140.13;;;59.43;;
173;SDS011;75;48.784;9.364;2023-03-03T03:32:38;135.27;;;59.33;;
173;SDS011;75;48.784;9.364;2023-03-03T03:35:22;115.97;;;54.20;;
173;SDS011;75;48.784;9.364;2023-03-03T03:38:07;111.13;;;52.30;;
173;SDS011;75;48.784;9.364;2023-03-03T03:40:52;128.70;;;53.47;;
173;SDS011;75;48.784;9.364;2023-03-03T03:43:37;124.80;;;53.63;;
173;SDS011;75;48.784;9.364;2023-03-03T03:46:21;110.73;;;50.17;;
173;SDS011;75;48.784;9.364;2023-03-03T03:49:06;113.53;;;49.20;;
173;SDS011;75;48.784;9.364;2023-03-03T03:51:51;101.23;;;48.07;;
173;SDS011;75;48.784;9.364;2023-03-03T03:54:36;104.60;;;49.47;;
173;SDS011;75;48.784;9.364;2023-03-03T03:57:20;107.33;;;49.70;;
173;SDS011;75;48.784;9.364;2023-03-03T04:00:05;111.37;;;49.80;;
173;SDS011;75;48.784;9.364;2023-03-03T04:02:51;94.83;;;45.37;;
173;SDS011;75;48.784;9.364;2023-03-03T04:05:36;102.93;;;47.23;;
173;SDS011;75;48.784;9.364;2023-03-03T04:08:21;103.30;;;47.37;;
173;SDS011;75;48.784;9.364;2023-03-03T04:11:05;100.83;;;48.87;;
173;SDS011;75;48.784;9.364;2023-03-03T04:13:50;100.03;;;48.00;;
173;SDS011;75;48.784;9.364;2023-03-03T04:16:35;105.00;;;47.40;;
173;SDS011;75;48.784;9.364;2023-03-03T04:19:19;107.13;;;47.67;;
173;SDS011;75;48.784;9.364;2023-03-03T04:22:04;96.30;;;45.57;;
173;SDS011;75;48.784;9.364;2023-03-03T04:24:49;99.77;;;45.47;;
173;SDS011;75;48.784;9.364;2023-03-03T04:27:35;91.27;;;45.33;;
173;SDS011;75;48.784;9.364;2023-03-03T04:30:20;102.67;;;46.43;;
173;SDS011;75;48.784;9.364;2023-03-03T04:33:04;105.70;;;47.27;;
173;SDS011;75;48.784;9.364;2023-03-03T04:35:49;96.53;;;46.60;;
173;SDS011;75;48.784;9.364;2023-03-03T04:38:34;107.80;;;50.40;;
173;SDS011;75;48.784;9.364;2023-03-03T04:41:19;100.03;;;46.07;;
173;SDS011;75;48.784;9.364;2023-03-03T04:44:03;100.53;;;46.87;;
173;SDS011;75;48.784;9.364;2023-03-03T04:46:48;106.27;;;48.30;;
173;SDS011;75;48.784;9.364;2023-03-03T04:49:33;103.07;;;47.73;;
173;SDS011;75;48.784;9.364;2023-03-03T04:52:17;97.57;;;46.10;;
173;SDS011;75;48.784;9.364;2023-03-03T04:55:02;99.73;;;46.87;;
173;SDS011;75;48.784;9.364;2023-03-03T04:57:47;99.73;;;46.60;;
173;SDS011;75;48.784;9.364;2023-03-03T05:00:32;111.33;;;48.33;;
173;SDS011;75;48.784;9.364;2023-03-03T05:03:17;94.20;;;46.63;;
173;SDS011;75;48.784;9.364;2023-03-03T05:06:02;96.87;;;47.10;;
173;SDS011;75;48.784;9.364;2023-03-03T05:08:47;112.57;;;50.53;;
173;SDS011;75;48.784;9.364;2023-03-03T05:11:31;107.27;;;48.13;;
173;SDS011;75;48.784;9.364;2023-03-03T05:14:16;100.13;;;47.20;;
173;SDS011;75;48.784;9.364;2023-03-03T05:17:02;104.83;;;48.70;;
173;SDS011;75;48.784;9.364;2023-03-03T05:19:47;114.03;;;50.50;;
173;SDS011;75;48.784;9.364;2023-03-03T05:22:32;114.53;;;51.00;;
173;SDS011;75;48.784;9.364;2023-03-03T05:25:16;115.33;;;49.27;;
173;SDS011;75;48.784;9.364;2023-03-03T05:28:01;116.13;;;51.70;;
173;SDS011;75;48.784;9.364;2023-03-03T05:30:47;120.20;;;51.30;;
173;SDS011;75;48.784;9.364;2023-03-03T05:33:32;107.30;;;48.50;;
173;SDS011;75;48.784;9.364;2023-03-03T05:36:17;124.60;;;50.53;;
173;SDS011;75;48.784;9.364;2023-03-03T05:39:01;104.77;;;48.17;;
173;SDS011;75;48.784;9.364;2023-03-03T05:41:46;118.60;;;49.67;;
173;SDS011;75;48.784;9.364;2023-03-03T05:44:31;101.27;;;48.57;;
173;SDS011;75;48.784;9.364;2023-03-03T05:47:15;96.20;;;47.23;;
173;SDS011;75;48.784;9.364;2023-03-03T05:50:00;112.90;;;49.37;;
173;SDS011;75;48.784;9.364;2023-03-03T05:52:46;109.23;;;48.90;;
173;SDS011;75;48.784;9.364;2023-03-03T05:55:31;107.37;;;48.40;;
173;SDS011;75;48.784;9.364;2023-03-03T05:58:15;104.10;;;48.17;;
173;SDS011;75;48.784;9.364;2023-03-03T06:01:00;100.00;;;47.90;;
173;SDS011;75;48.784;9.364;2023-03-03T06:03:45;108.30;;;47.73;;
173;SDS011;75;48.784;9.364;2023-03-03T06:06:29;102.03;;;47.53;;
173;SDS011;75;48.784;9.364;2023-03-03T06:09:15;111.03;;;50.93;;
173;SDS011;75;48.784;9.364;2023-03-03T06:12:01;112.37;;;51.10;;
173;SDS011;75;48.784;9.364;2023-03-03T06:14:46;125.07;;;57.83;;
173;SDS011;75;48.784;9.364;2023-03-03T06:17:31;101.93;;;48.60;;
173;SDS011;75;48.784;9.364;2023-03-03T06:20:15;113.23;;;49.53;;
173;SDS011;75;48.784;9.364;2023-03-03T06:23:00;104.63;;;47.80;;
173;SDS011;75;48.784;9.364;2023-03-03T06:25:45;107.17;;;48.20;;
173;SDS011;75;48.784;9.364;2023-03-03T06:28:30;98.37;;;46.93;;
173;SDS011;75;48.784;9.364;2023-03-03T06:31:14;94.03;;;44.23;;
173;SDS011;75;48.784;9.364;2023-03-03T06:33:59;93.17;;;47.50;;
173;SDS011;75;48.784;9.364;2023-03-03T06:36:44;95.70;;;47.07;;
173;SDS011;75;48.784;9.364;2023-03-03T06:39:29;106.37;;;47.50;;
173;SDS011;75;48.784;9.364;2023-03-03T06:42:14;96.67;;;45.27;;
173;SDS011;75;48.784;9.364;2023-03-03T06:44:58;100.60;;;47.73;;
173;SDS011;75;48.784;9.364;2023-03-03T06:47:43;101.13;;;46.30;;
173;SDS011;75;48.784;9.364;2023-03-03T06:50:28;90.70;;;45.53;;
173;SDS011;75;48.784;9.364;2023-03-03T06:53:14;91.33;;;46.40;;
173;SDS011;75;48.784;9.364;2023-03-03T06:55:58;98.00;;;47.70;;
173;SDS011;75;48.784;9.364;2023-03-03T06:58:44;101.27;;;46.43;;
173;SDS011;75;48.784;9.364;2023-03-03T07:01:35;97.43;;;46.10;;
173;SDS011;75;48.784;9.364;2023-03-03T07:04:28;89.73;;;44.67;;
173;SDS011;75;48.784;9.364;2023-03-03T07:09:58;91.80;;;43.93;;
173;SDS011;75;48.784;9.364;2023-03-03T07:12:43;88.33;;;46.77;;
173;SDS011;75;48.784;9.364;2023-03-03T07:15:34;90.40;;;45.07;;
173;SDS011;75;48.784;9.364;2023-03-03T07:18:30;76.63;;;41.53;;
173;SDS011;75;48.784;9.364;2023-03-03T07:21:21;89.40;;;43.33;;
173;SDS011;75;48.784;9.364;2023-03-03T07:24:17;80.90;;;43.50;;
173;SDS011;75;48.784;9.364;2023-03-03T07:30:23;85.30;;;42.07;;
173;SDS011;75;48.784;9.364;2023-03-03T07:33:07;94.37;;;43.60;;
173;SDS011;75;48.784;9.364;2023-03-03T07:36:01;94.23;;;44.10;;
173;SDS011;75;48.784;9.364;2023-03-03T07:38:49;109.30;;;46.60;;
173;SDS011;75;48.784;9.364;2023-03-03T07:41:34;82.57;;;41.63;;
173;SDS011;75;48.784;9.364;2023-03-03T07:44:25;78.83;;;39.57;;
173;SDS011;75;48.784;9.364;2023-03-03T07:47:20;80.30;;;40.80;;
173;SDS011;75;48.784;9.364;2023-03-03T07:50:17;84.77;;;42.10;;
173;SDS011;75;48.784;9.364;2023-03-03T07:53:02;82.87;;;43.07;;
173;SDS011;75;48.784;9.364;2023-03-03T07:55:49;78.20;;;40.87;;
173;SDS011;75;48.784;9.364;2023-03-03T07:58:35;79.63;;;40.20;;
173;SDS011;75;48.784;9.364;2023-03-03T08:04:19;80.30;;;40.47;;
173;SDS011;75;48.784;9.364;2023-03-03T08:07:13;79.50;;;38.80;;
173;SDS011;75;48.784;9.364;2023-03-03T08:10:00;80.03;;;40.87;;
173;SDS011;75;48.784;9.364;2023-03-03T08:12:45;82.00;;;40.60;;
173;SDS011;75;48.784;9.364;2023-03-03T08:15:32;82.07;;;41.80;;
173;SDS011;75;48.784;9.364;2023-03-03T08:18:24;81.53;;;41.47;;
173;SDS011;75;48.784;9.364;2023-03-03T08:23:56;91.13;;;42.70;;
173;SDS011;75;48.784;9.364;2023-03-03T08:26:40;87.20;;;42.87;;
173;SDS011;75;48.784;9.364;2023-03-03T08:29:25;86.77;;;44.60;;
173;SDS011;75;48.784;9.364;2023-03-03T08:32:09;86.50;;;45.57;;
173;SDS011;75;48.784;9.364;2023-03-03T08:34:54;85.50;;;43.87;;
173;SDS011;75;48.784;9.364;2023-03-03T08:37:38;80.60;;;43.30;;
173;SDS011;75;48.784;9.364;2023-03-03T08:40:23;89.00;;;43.43;;
173;SDS011;75;48.784;9.364;2023-03-03T08:43:08;81.43;;;43.47;;
173;SDS011;75;48.784;9.364;2023-03-03T08:45:56;85.20;;;43.17;;
173;SDS011;75;48.784;9.364;2023-03-03T08:48:41;82.13;;;41.50;;
173;SDS011;75;48.784;9.364;2023-03-03T08:51:26;83.90;;;42.80;;
173;SDS011;75;48.784;9.364;2023-03-03T08:54:10;85.43;;;42.27;;
173;SDS011;75;48.784;9.364;2023-03-03T08:56:56;75.87;;;41.27;;
173;SDS011;75;48.784;9.364;2023-03-03T08:59:40;73.80;;;37.80;;
173;SDS011;75;48.784;9.364;2023-03-03T09:02:25;80.33;;;40.13;;
173;SDS011;75;48.784;9.364;2023-03-03T09:05:10;76.00;;;39.87;;
173;SDS011;75;48.784;9.364;2023-03-03T09:07:55;70.23;;;37.40;;
173;SDS011;75;48.784;9.364;2023-03-03T09:10:40;72.73;;;38.87;;
173;SDS011;75;48.784;9.364;2023-03-03T09:13:26;71.20;;;37.00;;
173;SDS011;75;48.784;9.364;2023-03-03T09:16:12;70.00;;;37.17;;
173;SDS011;75;48.784;9.364;2023-03-03T09:18:58;70.67;;;36.70;;
173;SDS011;75;48.784;9.364;2023-03-03T09:21:44;68.23;;;36.13;;
173;SDS011;75;48.784;9.364;2023-03-03T09:24:30;67.07;;;35.57;;
173;SDS011;75;48.784;9.364;2023-03-03T09:27:21;65.33;;;35.40;;
173;SDS011;75;48.784;9.364;2023-03-03T09:32:58;60.80;;;33.50;;
173;SDS011;75;48.784;9.364;2023-03-03T09:35:44;63.53;;;33.30;;
173;SDS011;75;48.784;9.364;2023-03-03T09:38:31;60.00;;;34.20;;
173;SDS011;75;48.784;9.364;2023-03-03T09:50:08;64.60;;;32.80;;
173;SDS011;75;48.784;9.364;2023-03-03T09:53:06;57.63;;;32.70;;
173;SDS011;75;48.784;9.364;2023-03-03T09:55:57;68.37;;;34.40;;
173;SDS011;75;48.784;9.364;2023-03-03T10:07:49;61.13;;;34.10;;
173;SDS011;75;48.784;9.364;2023-03-03T10:10:52;63.83;;;34.53;;
173;SDS011;75;48.784;9.364;2023-03-03T10:13:52;68.00;;;36.70;;
173;SDS011;75;48.784;9.364;2023-03-03T10:16:57;64.87;;;33.97;;
173;SDS011;75;48.784;9.364;2023-03-03T10:19:50;66.03;;;34.83;;
173;SDS011;75;48.784;9.364;2023-03-03T10:22:51;66.43;;;32.90;;
173;SDS011;75;48.784;9.364;2023-03-03T10:40:14;65.77;;;36.17;;
173;SDS011;75;48.784;9.364;2023-03-03T10:46:25;67.27;;;36.63;;
173;SDS011;75;48.784;9.364;2023-03-03T10:49:18;68.73;;;37.03;;
173;SDS011;75;48.784;9.364;2023-03-03T10:52:16;72.40;;;37.87;;
173;SDS011;75;48.784;9.364;2023-03-03T10:55:20;67.60;;;35.90;;
173;SDS011;75;48.784;9.364;2023-03-03T11:04:12;67.27;;;36.47;;
173;SDS011;75;48.784;9.364;2023-03-03T11:07:18;70.60;;;37.50;;
173;SDS011;75;48.784;9.364;2023-03-03T11:12:59;67.37;;;37.80;;
173;SDS011;75;48.784;9.364;2023-03-03T11:16:10;70.73;;;38.30;;
173;SDS011;75;48.784;9.364;2023-03-03T11:21:50;65.63;;;36.17;;
173;SDS011;75;48.784;9.364;2023-03-03T11:24:52;80.50;;;36.90;;
173;SDS011;75;48.784;9.364;2023-03-03T11:30:44;72.70;;;37.77;;
173;SDS011;75;48.784;9.364;2023-03-03T11:33:35;70.50;;;38.67;;
173;SDS011;75;48.784;9.364;2023-03-03T11:36:29;70.70;;;41.27;;
173;SDS011;75;48.784;9.364;2023-03-03T11:39:19;67.00;;;35.47;;
173;SDS011;75;48.784;9.364;2023-03-03T11:44:58;60.30;;;33.33;;
173;SDS011;75;48.784;9.364;2023-03-03T11:50:47;62.60;;;34.40;;
173;SDS011;75;48.784;9.364;2023-03-03T11:56:37;59.20;;;33.43;;
173;SDS011;75;48.784;9.364;2023-03-03T11:59:27;60.93;;;33.93;;
173;SDS011;75;48.784;9.364;2023-03-03T12:02:22;58.80;;;32.70;;
173;SDS011;75;48.784;9.364;2023-03-03T12:05:11;58.73;;;32.67;;
173;SDS011;75;48.784;9.364;2023-03-03T12:08:07;60.80;;;34.30;;
173;SDS011;75;48.784;9.364;2023-03-03T12:22:26;56.90;;;31.63;;
173;SDS011;75;48.784;9.364;2023-03-03T12:28:19;58.63;;;31.80;;
173;SDS011;75;48.784;9.364;2023-03-03T12:31:15;63.13;;;33.73;;
173;SDS011;75;48.784;9.364;2023-03-03T12:40:19;56.97;;;32.50;;
173;SDS011;75;48.784;9.364;2023-03-03T12:43:21;52.27;;;30.77;;
173;SDS011;75;48.784;9.364;2023-03-03T12:46:19;57.50;;;31.67;;
173;SDS011;75;48.784;9.364;2023-03-03T12:49:05;53.53;;;32.57;;
173;SDS011;75;48.784;9.364;2023-03-03T12:57:53;55.77;;;30.93;;
173;SDS011;75;48.784;9.364;2023-03-03T13:03:56;51.27;;;28.87;;
173;SDS011;75;48.784;9.364;2023-03-03T13:06:45;57.20;;;30.53;;
173;SDS011;75;48.784;9.364;2023-03-03T13:09:41;55.83;;;30.83;;
173;SDS011;75;48.784;9.364;2023-03-03T13:12:29;53.33;;;29.90;;
173;SDS011;75;48.784;9.364;2023-03-03T13:15:53;56.10;;;30.73;;
173;SDS011;75;48.784;9.364;2023-03-03T13:18:28;51.03;;;29.63;;
173;SDS011;75;48.784;9.364;2023-03-03T13:21:29;58.53;;;30.80;;
173;SDS011;75;48.784;9.364;2023-03-03T13:27:07;56.90;;;31.53;;
173;SDS011;75;48.784;9.364;2023-03-03T13:32:56;105.47;;;46.97;;
173;SDS011;75;48.784;9.364;2023-03-03T13:35:44;49.03;;;28.10;;
173;SDS011;75;48.784;9.364;2023-03-03T13:38:31;59.30;;;31.30;;
173;SDS011;75;48.784;9.364;2023-03-03T13:41:22;58.33;;;30.20;;
173;SDS011;75;48.784;9.364;2023-03-03T13:47:05;49.60;;;28.17;;
173;SDS011;75;48.784;9.364;2023-03-03T13:52:48;56.30;;;29.70;;
173;SDS011;75;48.784;9.364;2023-03-03T13:55:42;51.53;;;29.00;;
173;SDS011;75;48.784;9.364;2023-03-03T14:01:54;51.47;;;29.53;;
173;SDS011;75;48.784;9.364;2023-03-03T14:07:38;54.63;;;29.60;;
173;SDS011;75;48.784;9.364;2023-03-03T14:10:31;55.47;;;29.60;;
173;SDS011;75;48.784;9.364;2023-03-03T14:13:18;50.40;;;29.27;;
173;SDS011;75;48.784;9.364;2023-03-03T14:16:09;54.70;;;29.43;;
173;SDS011;75;48.784;9.364;2023-03-03T14:19:14;50.00;;;28.10;;
173;SDS011;75;48.784;9.364;2023-03-03T14:22:05;54.70;;;31.23;;
173;SDS011;75;48.784;9.364;2023-03-03T14:24:55;55.33;;;29.63;;
173;SDS011;75;48.784;9.364;2023-03-03T14:30:31;55.03;;;30.93;;
173;SDS011;75;48.784;9.364;2023-03-03T14:33:18;58.07;;;31.70;;
173;SDS011;75;48.784;9.364;2023-03-03T14:36:04;55.83;;;30.50;;
173;SDS011;75;48.784;9.364;2023-03-03T14:38:49;53.93;;;28.87;;
173;SDS011;75;48.784;9.364;2023-03-03T14:41:38;53.20;;;29.70;;
173;SDS011;75;48.784;9.364;2023-03-03T14:44:24;52.63;;;29.50;;
173;SDS011;75;48.784;9.364;2023-03-03T14:49:55;52.10;;;29.80;;
173;SDS011;75;48.784;9.364;2023-03-03T14:52:43;55.60;;;29.07;;
173;SDS011;75;48.784;9.364;2023-03-03T14:55:44;52.77;;;29.00;;
173;SDS011;75;48.784;9.364;2023-03-03T14:58:33;51.40;;;28.63;;
173;SDS011;75;48.784;9.364;2023-03-03T15:04:09;57.23;;;31.77;;
173;SDS011;75;48.784;9.364;2023-03-03T15:07:30;57.23;;;30.50;;
173;SDS011;75;48.784;9.364;2023-03-03T15:10:11;59.50;;;31.03;;
173;SDS011;75;48.784;9.364;2023-03-03T15:13:07;63.33;;;32.40;;
173;SDS011;75;48.784;9.364;2023-03-03T15:21:36;57.20;;;30.57;;
173;SDS011;75;48.784;9.364;2023-03-03T15:27:18;56.17;;;30.10;;
173;SDS011;75;48.784;9.364;2023-03-03T15:30:14;53.80;;;29.40;;
173;SDS011;75;48.784;9.364;2023-03-03T15:33:17;49.83;;;28.90;;
173;SDS011;75;48.784;9.364;2023-03-03T15:36:13;49.97;;;28.73;;
173;SDS011;75;48.784;9.364;2023-03-03T15:39:04;52.13;;;28.87;;
173;SDS011;75;48.784;9.364;2023-03-03T15:42:03;51.17;;;28.67;;
173;SDS011;75;48.784;9.364;2023-03-03T15:44:55;50.73;;;27.93;;
173;SDS011;75;48.784;9.364;2023-03-03T15:47:57;53.27;;;28.17;;
173;SDS011;75;48.784;9.364;2023-03-03T15:51:12;58.40;;;31.03;;
173;SDS011;75;48.784;9.364;2023-03-03T15:56:40;54.83;;;29.37;;
173;SDS011;75;48.784;9.364;2023-03-03T16:17:13;62.63;;;32.17;;
173;SDS011;75;48.784;9.364;2023-03-03T16:26:02;70.20;;;35.07;;
173;SDS011;75;48.784;9.364;2023-03-03T16:31:54;54.57;;;30.40;;
173;SDS011;75;48.784;9.364;2023-03-03T16:34:45;56.17;;;31.13;;
173;SDS011;75;48.784;9.364;2023-03-03T16:37:33;60.77;;;31.40;;
173;SDS011;75;48.784;9.364;2023-03-03T16:40:21;60.70;;;30.10;;
173;SDS011;75;48.784;9.364;2023-03-03T16:46:44;61.33;;;31.67;;
173;SDS011;75;48.784;9.364;2023-03-03T16:54:53;54.73;;;30.83;;
173;SDS011;75;48.784;9.364;2023-03-03T17:00:28;56.73;;;30.67;;
173;SDS011;75;48.784;9.364;2023-03-03T17:03:18;63.50;;;32.13;;
173;SDS011;75;48.784;9.364;2023-03-03T17:06:09;60.40;;;34.00;;
173;SDS011;75;48.784;9.364;2023-03-03T17:08:57;55.77;;;32.20;;
173;SDS011;75;48.784;9.364;2023-03-03T17:11:56;63.97;;;33.53;;
173;SDS011;75;48.784;9.364;2023-03-03T17:20:57;65.37;;;33.63;;
173;SDS011;75;48.784;9.364;2023-03-03T17:23:48;67.07;;;34.80;;
173;SDS011;75;48.784;9.364;2023-03-03T17:29:35;67.97;;;35.90;;
173;SDS011;75;48.784;9.364;2023-03-03T17:32:26;78.67;;;35.97;;
173;SDS011;75;48.784;9.364;2023-03-03T17:41:03;81.53;;;38.50;;
173;SDS011;75;48.784;9.364;2023-03-03T17:47:05;86.77;;;42.13;;
173;SDS011;75;48.784;9.364;2023-03-03T17:55:57;74.33;;;37.90;;
173;SDS011;75;48.784;9.364;2023-03-03T17:59:07;68.07;;;37.53;;
173;SDS011;75;48.784;9.364;2023-03-03T18:04:46;72.17;;;38.07;;
173;SDS011;75;48.784;9.364;2023-03-03T18:18:51;86.50;;;42.47;;
173;SDS011;75;48.784;9.364;2023-03-03T18:24:37;80.90;;;39.90;;
173;SDS011;75;48.784;9.364;2023-03-03T18:30:17;80.43;;;43.73;;
173;SDS011;75;48.784;9.364;2023-03-03T18:33:08;91.73;;;44.17;;
173;SDS011;75;48.784;9.364;2023-03-03T18:35:53;101.60;;;50.10;;
173;SDS011;75;48.784;9.364;2023-03-03T18:38:55;86.00;;;45.93;;
173;SDS011;75;48.784;9.364;2023-03-03T18:44:45;83.43;;;42.80;;
173;SDS011;75;48.784;9.364;2023-03-03T18:50:40;80.33;;;42.03;;
173;SDS011;75;48.784;9.364;2023-03-03T18:53:29;83.37;;;44.37;;
173;SDS011;75;48.784;9.364;2023-03-03T18:56:39;81.27;;;41.53;;
173;SDS011;75;48.784;9.364;2023-03-03T19:07:56;85.90;;;43.80;;
173;SDS011;75;48.784;9.364;2023-03-03T19:10:51;88.63;;;46.90;;
173;SDS011;75;48.784;9.364;2023-03-03T19:13:38;81.23;;;43.73;;
173;SDS011;75;48.784;9.364;2023-03-03T19:22:29;79.67;;;43.30;;
173;SDS011;75;48.784;9.364;2023-03-03T19:33:41;88.63;;;46.20;;
173;SDS011;75;48.784;9.364;2023-03-03T19:39:35;81.67;;;41.50;;
173;SDS011;75;48.784;9.364;2023-03-03T19:42:32;89.70;;;45.00;;
173;SDS011;75;48.784;9.364;2023-03-03T19:45:39;88.17;;;43.10;;
173;SDS011;75;48.784;9.364;2023-03-03T19:48:32;92.03;;;45.27;;
173;SDS011;75;48.784;9.364;2023-03-03T19:51:26;88.73;;;45.83;;
173;SDS011;75;48.784;9.364;2023-03-03T19:57:18;112.07;;;53.50;;
173;SDS011;75;48.784;9.364;2023-03-03T20:00:17;99.67;;;49.70;;
173;SDS011;75;48.784;9.364;2023-03-03T20:08:57;137.23;;;62.60;;
173;SDS011;75;48.784;9.364;2023-03-03T20:14:38;112.33;;;54.90;;
173;SDS011;75;48.784;9.364;2023-03-03T20:17:35;103.40;;;51.70;;
173;SDS011;75;48.784;9.364;2023-03-03T20:23:15;108.90;;;52.10;;
173;SDS011;75;48.784;9.364;2023-03-03T20:26:07;109.73;;;52.07;;
173;SDS011;75;48.784;9.364;2023-03-03T20:29:00;98.43;;;50.00;;
173;SDS011;75;48.784;9.364;2023-03-03T20:32:04;102.70;;;48.23;;
173;SDS011;75;48.784;9.364;2023-03-03T20:41:07;130.57;;;63.27;;
173;SDS011;75;48.784;9.364;2023-03-03T20:44:03;120.60;;;57.60;;
173;SDS011;75;48.784;9.364;2023-03-03T20:46:52;100.67;;;50.47;;
173;SDS011;75;48.784;9.364;2023-03-03T20:58:20;138.70;;;64.43;;
173;SDS011;75;48.784;9.364;2023-03-03T21:03:51;163.47;;;71.00;;
173;SDS011;75;48.784;9.364;2023-03-03T21:06:36;153.53;;;66.27;;
173;SDS011;75;48.784;9.364;2023-03-03T21:09:30;166.20;;;75.43;;
173;SDS011;75;48.784;9.364;2023-03-03T21:12:25;158.83;;;74.70;;
173;SDS011;75;48.784;9.364;2023-03-03T21:15:20;144.90;;;71.13;;
173;SDS011;75;48.784;9.364;2023-03-03T21:18:20;147.33;;;74.40;;
173;SDS011;75;48.784;9.364;2023-03-03T21:21:05;125.00;;;55.87;;
173;SDS011;75;48.784;9.364;2023-03-03T21:23:51;125.17;;;62.17;;
173;SDS011;75;48.784;9.364;2023-03-03T21:29:33;114.50;;;55.33;;
173;SDS011;75;48.784;9.364;2023-03-03T21:32:33;111.53;;;55.90;;
173;SDS011;75;48.784;9.364;2023-03-03T21:35:18;121.43;;;58.20;;
173;SDS011;75;48.784;9.364;2023-03-03T21:38:07;123.77;;;57.90;;
173;SDS011;75;48.784;9.364;2023-03-03T21:41:01;118.53;;;54.40;;
173;SDS011;75;48.784;9.364;2023-03-03T21:43:47;107.73;;;50.87;;
173;SDS011;75;48.784;9.364;2023-03-03T21:46:32;118.93;;;50.03;;
173;SDS011;75;48.784;9.364;2023-03-03T21:49:17;108.23;;;49.20;;
173;SDS011;75;48.784;9.364;2023-03-03T21:52:02;116.27;;;50.33;;
173;SDS011;75;48.784;9.364;2023-03-03T21:54:47;126.70;;;56.63;;
173;SDS011;75;48.784;9.364;2023-03-03T21:57:33;127.03;;;52.57;;
173;SDS011;75;48.784;9.364;2023-03-03T22:00:20;126.33;;;54.50;;
173;SDS011;75;48.784;9.364;2023-03-03T22:03:05;121.03;;;52.67;;
173;SDS011;75;48.784;9.364;2023-03-03T22:05:50;113.77;;;51.50;;
173;SDS011;75;48.784;9.364;2023-03-03T22:08:36;114.23;;;50.40;;
173;SDS011;75;48.784;9.364;2023-03-03T22:11:20;125.13;;;55.50;;
173;SDS011;75;48.784;9.364;2023-03-03T22:14:05;147.17;;;65.70;;
173;SDS011;75;48.784;9.364;2023-03-03T22:16:50;146.67;;;59.63;;
173;SDS011;75;48.784;9.364;2023-03-03T22:19:35;138.37;;;61.07;;
173;SDS011;75;48.784;9.364;2023-03-03T22:22:21;129.87;;;56.27;;
173;SDS011;75;48.784;9.364;2023-03-03T22:25:07;122.80;;;52.90;;
173;SDS011;75;48.784;9.364;2023-03-03T22:27:51;126.10;;;54.87;;
173;SDS011;75;48.784;9.364;2023-03-03T22:30:36;133.37;;;58.07;;
173;SDS011;75;48.784;9.364;2023-03-03T22:33:21;141.97;;;58.70;;
173;SDS011;75;48.784;9.364;2023-03-03T22:36:06;133.43;;;54.57;;
173;SDS011;75;48.784;9.364;2023-03-03T22:38:51;131.60;;;53.63;;